SHT22A EGLL-EGJB
Flight info
| Callsign | SHT22A |
|---|---|
| Flight time | 0h 44m |
| Altitude | 24000 |
| Route | GASGU N866 SAM N63 LELNA |
| Aircraft | A319/M-SDE3FGHIRWY/LB1 |
Departure
| Time | 2026-04-24 19:56 |
|---|---|
| Airport | London Heathrow Airport (EGLL) |
Arrival
| Time | 2026-04-24 20:40 |
|---|---|
| Airport | Guernsey Airport (EGJB) |
| Time | Latitude | Longitude | Altitude | Speed | Heading |
|---|---|---|---|---|---|
| 2026-04-24 19:28 | 51.47361 | -0.48589 | 86 ft | 0 kts | 270° |
| 2026-04-24 19:44 | 51.47361 | -0.48585 | 88 ft | 3 kts | 270° |
| 2026-04-24 19:44 | 51.47361 | -0.48543 | 86 ft | 4 kts | 269° |
| 2026-04-24 19:44 | 51.47361 | -0.48508 | 86 ft | 4 kts | 257° |
| 2026-04-24 19:44 | 51.47373 | -0.48478 | 89 ft | 4 kts | 197° |
| 2026-04-24 19:45 | 51.47396 | -0.48474 | 86 ft | 2 kts | 179° |
| 2026-04-24 19:45 | 51.47398 | -0.48474 | 86 ft | 0 kts | 179° |
| 2026-04-24 19:48 | 51.47379 | -0.48474 | 88 ft | 7 kts | 179° |
| 2026-04-24 19:48 | 51.47266 | -0.48406 | 86 ft | 11 kts | 103° |
| 2026-04-24 19:49 | 51.47131 | -0.48357 | 86 ft | 14 kts | 180° |
| 2026-04-24 19:49 | 51.46929 | -0.48354 | 86 ft | 5 kts | 180° |
| 2026-04-24 19:50 | 51.46873 | -0.48355 | 86 ft | 0 kts | 180° |
| 2026-04-24 19:51 | 51.46823 | -0.48355 | 86 ft | 0 kts | 180° |
| 2026-04-24 19:52 | 51.46821 | -0.48355 | 86 ft | 0 kts | 180° |
| 2026-04-24 19:52 | 51.46802 | -0.48355 | 86 ft | 5 kts | 180° |
| 2026-04-24 19:52 | 51.46750 | -0.48376 | 90 ft | 10 kts | 233° |
| 2026-04-24 19:53 | 51.46742 | -0.48506 | 86 ft | 14 kts | 269° |
| 2026-04-24 19:53 | 51.46742 | -0.48661 | 86 ft | 11 kts | 269° |
| 2026-04-24 19:53 | 51.46667 | -0.48747 | 86 ft | 11 kts | 179° |
| 2026-04-24 19:54 | 51.46564 | -0.48785 | 88 ft | 16 kts | 198° |
| 2026-04-24 19:54 | 51.46478 | -0.48680 | 87 ft | 16 kts | 103° |
| 2026-04-24 19:54 | 51.46478 | -0.48585 | 86 ft | 0 kts | 89° |
| 2026-04-24 19:55 | 51.46478 | -0.48438 | 87 ft | 38 kts | 90° |
| 2026-04-24 19:55 | 51.46482 | -0.47630 | 86 ft | 106 kts | 90° |
| 2026-04-24 19:55 | 51.46487 | -0.46146 | 229 ft | 148 kts | 90° |
| 2026-04-24 19:56 | 51.46500 | -0.44468 | 901 ft | 150 kts | 89° |
| 2026-04-24 19:56 | 51.46523 | -0.42741 | 1565 ft | 159 kts | 89° |
| 2026-04-24 19:56 | 51.46315 | -0.40991 | 1949 ft | 183 kts | 114° |
| 2026-04-24 19:56 | 51.45627 | -0.39161 | 2307 ft | 214 kts | 122° |
| 2026-04-24 19:57 | 51.44699 | -0.37075 | 2802 ft | 242 kts | 125° |
| 2026-04-24 19:57 | 51.43613 | -0.34842 | 3731 ft | 254 kts | 134° |
| 2026-04-24 19:57 | 51.42159 | -0.33293 | 4583 ft | 264 kts | 156° |
| 2026-04-24 19:57 | 51.40355 | -0.32738 | 4899 ft | 267 kts | 180° |
| 2026-04-24 19:58 | 51.38547 | -0.33442 | 4994 ft | 269 kts | 206° |
| 2026-04-24 19:58 | 51.37054 | -0.35232 | 5015 ft | 270 kts | 221° |
| 2026-04-24 19:58 | 51.35662 | -0.37278 | 5013 ft | 271 kts | 221° |
| 2026-04-24 19:58 | 51.34271 | -0.39303 | 5013 ft | 271 kts | 221° |
| 2026-04-24 19:59 | 51.32875 | -0.41327 | 5003 ft | 270 kts | 221° |
| 2026-04-24 19:59 | 51.32407 | -0.42003 | 5011 ft | 270 kts | 221° |
| 2026-04-24 19:59 | 51.31874 | -0.42785 | 5012 ft | 270 kts | 223° |
| 2026-04-24 19:59 | 51.30570 | -0.45132 | 5003 ft | 271 kts | 237° |
| 2026-04-24 20:00 | 51.29841 | -0.47967 | 5016 ft | 274 kts | 255° |
| 2026-04-24 20:00 | 51.29382 | -0.50872 | 5015 ft | 274 kts | 254° |
| 2026-04-24 20:00 | 51.28882 | -0.53795 | 5010 ft | 274 kts | 253° |
| 2026-04-24 20:00 | 51.28351 | -0.56764 | 5012 ft | 273 kts | 253° |
| 2026-04-24 20:01 | 51.27816 | -0.59621 | 5074 ft | 272 kts | 252° |
| 2026-04-24 20:01 | 51.27252 | -0.62520 | 5322 ft | 273 kts | 252° |
| 2026-04-24 20:01 | 51.26679 | -0.65435 | 5576 ft | 275 kts | 251° |
| 2026-04-24 20:01 | 51.26103 | -0.68349 | 5826 ft | 275 kts | 252° |
| 2026-04-24 20:02 | 51.25525 | -0.71285 | 5977 ft | 277 kts | 251° |
| 2026-04-24 20:02 | 51.25003 | -0.73945 | 6008 ft | 277 kts | 252° |
| 2026-04-24 20:02 | 51.24426 | -0.76896 | 6009 ft | 276 kts | 251° |
| 2026-04-24 20:02 | 51.23852 | -0.79823 | 6010 ft | 276 kts | 252° |
| 2026-04-24 20:03 | 51.23488 | -0.81674 | 6010 ft | 276 kts | 252° |
| 2026-04-24 20:03 | 51.23140 | -0.83367 | 6014 ft | 276 kts | 251° |
| 2026-04-24 20:03 | 51.22732 | -0.85359 | 6014 ft | 277 kts | 251° |
| 2026-04-24 20:03 | 51.22153 | -0.88289 | 6011 ft | 277 kts | 251° |
| 2026-04-24 20:04 | 51.21581 | -0.91234 | 6654 ft | 280 kts | 252° |
| 2026-04-24 20:04 | 51.21131 | -0.93527 | 7497 ft | 280 kts | 251° |
| 2026-04-24 20:04 | 51.20716 | -0.95095 | 8016 ft | 282 kts | 242° |
| 2026-04-24 20:04 | 51.20180 | -0.96488 | 8679 ft | 279 kts | 235° |
| 2026-04-24 20:05 | 51.18848 | -0.98838 | 9582 ft | 286 kts | 224° |
| 2026-04-24 20:05 | 51.17958 | -1.00194 | 10174 ft | 289 kts | 224° |
| 2026-04-24 20:05 | 51.16641 | -1.02200 | 10667 ft | 305 kts | 224° |
| 2026-04-24 20:05 | 51.15011 | -1.04698 | 11113 ft | 324 kts | 224° |
| 2026-04-24 20:06 | 51.14330 | -1.05745 | 11397 ft | 327 kts | 224° |
| 2026-04-24 20:06 | 51.12878 | -1.07851 | 12114 ft | 330 kts | 223° |
| 2026-04-24 20:06 | 51.11318 | -1.10202 | 12858 ft | 334 kts | 224° |
| 2026-04-24 20:06 | 51.09831 | -1.12505 | 13619 ft | 337 kts | 224° |
| 2026-04-24 20:07 | 51.09268 | -1.13385 | 13901 ft | 338 kts | 224° |
| 2026-04-24 20:07 | 51.06961 | -1.16987 | 14943 ft | 342 kts | 225° |
| 2026-04-24 20:07 | 51.05302 | -1.19569 | 15704 ft | 345 kts | 225° |
| 2026-04-24 20:07 | 51.03578 | -1.22234 | 16455 ft | 348 kts | 225° |
| 2026-04-24 20:08 | 51.02189 | -1.24364 | 17052 ft | 351 kts | 225° |
| 2026-04-24 20:08 | 51.00419 | -1.27060 | 17805 ft | 354 kts | 225° |
| 2026-04-24 20:08 | 50.99022 | -1.29184 | 18082 ft | 355 kts | 225° |
| 2026-04-24 20:08 | 50.97234 | -1.31902 | 18225 ft | 355 kts | 225° |
| 2026-04-24 20:09 | 50.95359 | -1.34426 | 18249 ft | 358 kts | 217° |
| 2026-04-24 20:09 | 50.93117 | -1.36440 | 18252 ft | 381 kts | 208° |
| 2026-04-24 20:09 | 50.90696 | -1.38370 | 18247 ft | 399 kts | 208° |
| 2026-04-24 20:09 | 50.88184 | -1.40370 | 18247 ft | 404 kts | 208° |
| 2026-04-24 20:10 | 50.85669 | -1.42371 | 18243 ft | 405 kts | 208° |
| 2026-04-24 20:10 | 50.83149 | -1.44376 | 18247 ft | 405 kts | 208° |
| 2026-04-24 20:10 | 50.80633 | -1.46381 | 18247 ft | 405 kts | 208° |
| 2026-04-24 20:10 | 50.78104 | -1.48393 | 18247 ft | 405 kts | 208° |
| 2026-04-24 20:11 | 50.75621 | -1.50369 | 18246 ft | 405 kts | 208° |
| 2026-04-24 20:11 | 50.73101 | -1.52372 | 18246 ft | 405 kts | 208° |
| 2026-04-24 20:11 | 50.70570 | -1.54381 | 18246 ft | 405 kts | 208° |
| 2026-04-24 20:11 | 50.68046 | -1.56381 | 18245 ft | 406 kts | 208° |
| 2026-04-24 20:12 | 50.65519 | -1.58377 | 18247 ft | 406 kts | 208° |
| 2026-04-24 20:12 | 50.62997 | -1.60364 | 18241 ft | 405 kts | 208° |
| 2026-04-24 20:12 | 50.60465 | -1.62356 | 18240 ft | 405 kts | 208° |
| 2026-04-24 20:12 | 50.57984 | -1.64308 | 18238 ft | 405 kts | 208° |
| 2026-04-24 20:13 | 50.55408 | -1.66331 | 18239 ft | 405 kts | 208° |
| 2026-04-24 20:13 | 50.52892 | -1.68302 | 18236 ft | 405 kts | 208° |
| 2026-04-24 20:13 | 50.50370 | -1.70280 | 18236 ft | 405 kts | 208° |
| 2026-04-24 20:13 | 50.47860 | -1.72251 | 18232 ft | 405 kts | 208° |
| 2026-04-24 20:14 | 50.45322 | -1.74238 | 18231 ft | 405 kts | 208° |
| 2026-04-24 20:14 | 50.42734 | -1.76257 | 18231 ft | 405 kts | 208° |
| 2026-04-24 20:14 | 50.40250 | -1.78193 | 18220 ft | 405 kts | 207° |
| 2026-04-24 20:14 | 50.37721 | -1.80160 | 18237 ft | 404 kts | 208° |
| 2026-04-24 20:15 | 50.35196 | -1.82127 | 18235 ft | 404 kts | 208° |
| 2026-04-24 20:15 | 50.32687 | -1.84085 | 18236 ft | 403 kts | 208° |
| 2026-04-24 20:15 | 50.30176 | -1.86041 | 18233 ft | 403 kts | 207° |
| 2026-04-24 20:15 | 50.27652 | -1.87999 | 18235 ft | 403 kts | 207° |
| 2026-04-24 20:16 | 50.25138 | -1.89942 | 18230 ft | 403 kts | 208° |
| 2026-04-24 20:16 | 50.22625 | -1.91882 | 18227 ft | 402 kts | 207° |
| 2026-04-24 20:16 | 50.20174 | -1.93771 | 18197 ft | 382 kts | 207° |
| 2026-04-24 20:16 | 50.17835 | -1.95575 | 18058 ft | 365 kts | 208° |
| 2026-04-24 20:17 | 50.15615 | -1.97292 | 17928 ft | 348 kts | 207° |
| 2026-04-24 20:17 | 50.11468 | -2.00487 | 17659 ft | 320 kts | 207° |
| 2026-04-24 20:17 | 50.09509 | -2.01994 | 17523 ft | 308 kts | 207° |
| 2026-04-24 20:18 | 50.08251 | -2.02961 | 17436 ft | 301 kts | 207° |
| 2026-04-24 20:18 | 50.05789 | -2.04854 | 17227 ft | 289 kts | 207° |
| 2026-04-24 20:18 | 50.03996 | -2.06230 | 16964 ft | 285 kts | 207° |
| 2026-04-24 20:18 | 50.02233 | -2.07583 | 16711 ft | 283 kts | 207° |
| 2026-04-24 20:19 | 50.00465 | -2.08936 | 16455 ft | 281 kts | 207° |
| 2026-04-24 20:19 | 49.98782 | -2.10496 | 16203 ft | 281 kts | 216° |
| 2026-04-24 20:19 | 49.97262 | -2.12453 | 15935 ft | 279 kts | 224° |
| 2026-04-24 20:19 | 49.95974 | -2.14629 | 15706 ft | 276 kts | 228° |
| 2026-04-24 20:20 | 49.94702 | -2.16860 | 15453 ft | 276 kts | 227° |
| 2026-04-24 20:20 | 49.93421 | -2.19104 | 15199 ft | 276 kts | 227° |
| 2026-04-24 20:20 | 49.92117 | -2.21387 | 14954 ft | 276 kts | 227° |
| 2026-04-24 20:20 | 49.90842 | -2.23612 | 14713 ft | 275 kts | 227° |
| 2026-04-24 20:21 | 49.89573 | -2.25826 | 14472 ft | 273 kts | 226° |
| 2026-04-24 20:21 | 49.88314 | -2.28021 | 14240 ft | 273 kts | 227° |
| 2026-04-24 20:21 | 49.87052 | -2.30215 | 13999 ft | 273 kts | 227° |
| 2026-04-24 20:21 | 49.85773 | -2.32435 | 13713 ft | 275 kts | 227° |
| 2026-04-24 20:22 | 49.84491 | -2.34660 | 13328 ft | 275 kts | 227° |
| 2026-04-24 20:22 | 49.83219 | -2.36866 | 13000 ft | 268 kts | 227° |
| 2026-04-24 20:22 | 49.82406 | -2.38279 | 12809 ft | 261 kts | 226° |
| 2026-04-24 20:22 | 49.80821 | -2.41036 | 12221 ft | 257 kts | 227° |
| 2026-04-24 20:23 | 49.80018 | -2.42429 | 11954 ft | 257 kts | 227° |
| 2026-04-24 20:23 | 49.78824 | -2.44499 | 11599 ft | 257 kts | 226° |
| 2026-04-24 20:23 | 49.77633 | -2.46564 | 11251 ft | 256 kts | 227° |
| 2026-04-24 20:23 | 49.76456 | -2.48603 | 10772 ft | 257 kts | 227° |
| 2026-04-24 20:24 | 49.75274 | -2.50647 | 10394 ft | 254 kts | 227° |
| 2026-04-24 20:24 | 49.74093 | -2.52681 | 10192 ft | 252 kts | 227° |
| 2026-04-24 20:24 | 49.72913 | -2.54708 | 10105 ft | 254 kts | 227° |
| 2026-04-24 20:24 | 49.71729 | -2.56749 | 9988 ft | 255 kts | 227° |
| 2026-04-24 20:25 | 49.70531 | -2.58813 | 9496 ft | 262 kts | 226° |
| 2026-04-24 20:25 | 49.69280 | -2.60820 | 9328 ft | 255 kts | 221° |
| 2026-04-24 20:25 | 49.67951 | -2.62643 | 8888 ft | 260 kts | 219° |
| 2026-04-24 20:25 | 49.66568 | -2.64433 | 8598 ft | 254 kts | 219° |
| 2026-04-24 20:26 | 49.65193 | -2.66182 | 8276 ft | 249 kts | 218° |
| 2026-04-24 20:26 | 49.63887 | -2.67839 | 7911 ft | 247 kts | 218° |
| 2026-04-24 20:26 | 49.62629 | -2.69647 | 7511 ft | 246 kts | 222° |
| 2026-04-24 20:26 | 49.61390 | -2.71446 | 7148 ft | 244 kts | 220° |
| 2026-04-24 20:27 | 49.60143 | -2.73214 | 6769 ft | 243 kts | 221° |
| 2026-04-24 20:27 | 49.58893 | -2.74971 | 6389 ft | 242 kts | 220° |
| 2026-04-24 20:27 | 49.57646 | -2.76705 | 6006 ft | 240 kts | 221° |
| 2026-04-24 20:27 | 49.56424 | -2.78384 | 5653 ft | 237 kts | 220° |
| 2026-04-24 20:28 | 49.55202 | -2.80059 | 5300 ft | 234 kts | 221° |
| 2026-04-24 20:28 | 49.53970 | -2.81729 | 4967 ft | 230 kts | 220° |
| 2026-04-24 20:28 | 49.52769 | -2.83347 | 4594 ft | 228 kts | 220° |
| 2026-04-24 20:28 | 49.51611 | -2.84902 | 4463 ft | 214 kts | 220° |
| 2026-04-24 20:29 | 49.50888 | -2.85880 | 4375 ft | 204 kts | 220° |
| 2026-04-24 20:29 | 49.49517 | -2.87735 | 4169 ft | 188 kts | 220° |
| 2026-04-24 20:29 | 49.48539 | -2.89060 | 3838 ft | 187 kts | 220° |
| 2026-04-24 20:29 | 49.47587 | -2.90361 | 3537 ft | 181 kts | 220° |
| 2026-04-24 20:30 | 49.46641 | -2.91662 | 3075 ft | 184 kts | 220° |
| 2026-04-24 20:30 | 49.45708 | -2.92980 | 3005 ft | 183 kts | 220° |
| 2026-04-24 20:30 | 49.44782 | -2.94319 | 2997 ft | 183 kts | 220° |
| 2026-04-24 20:30 | 49.43850 | -2.95660 | 3000 ft | 184 kts | 220° |
| 2026-04-24 20:31 | 49.42903 | -2.96992 | 3001 ft | 186 kts | 220° |
| 2026-04-24 20:31 | 49.41963 | -2.98325 | 2995 ft | 181 kts | 220° |
| 2026-04-24 20:31 | 49.41036 | -2.99639 | 2994 ft | 181 kts | 221° |
| 2026-04-24 20:31 | 49.40108 | -3.00942 | 2995 ft | 181 kts | 220° |
| 2026-04-24 20:32 | 49.39189 | -3.02246 | 2998 ft | 180 kts | 219° |
| 2026-04-24 20:32 | 49.38276 | -3.03564 | 2994 ft | 180 kts | 222° |
| 2026-04-24 20:32 | 49.37314 | -3.04800 | 2993 ft | 178 kts | 207° |
| 2026-04-24 20:32 | 49.36138 | -3.05039 | 2993 ft | 177 kts | 166° |
| 2026-04-24 20:33 | 49.35157 | -3.03961 | 2996 ft | 178 kts | 125° |
| 2026-04-24 20:33 | 49.34925 | -3.02022 | 2998 ft | 184 kts | 82° |
| 2026-04-24 20:33 | 49.35602 | -3.00355 | 2997 ft | 189 kts | 42° |
| 2026-04-24 20:33 | 49.36693 | -2.99216 | 2996 ft | 190 kts | 33° |
| 2026-04-24 20:34 | 49.37848 | -2.98210 | 2989 ft | 193 kts | 26° |
| 2026-04-24 20:34 | 49.39100 | -2.97482 | 2990 ft | 193 kts | 20° |
| 2026-04-24 20:34 | 49.40366 | -2.96834 | 2994 ft | 192 kts | 21° |
| 2026-04-24 20:34 | 49.41465 | -2.95716 | 2992 ft | 190 kts | 46° |
| 2026-04-24 20:35 | 49.42129 | -2.94009 | 2993 ft | 185 kts | 76° |
| 2026-04-24 20:35 | 49.42306 | -2.92063 | 3000 ft | 184 kts | 82° |
| 2026-04-24 20:35 | 49.42528 | -2.90143 | 2998 ft | 183 kts | 85° |
| 2026-04-24 20:35 | 49.42653 | -2.88177 | 3001 ft | 183 kts | 88° |
| 2026-04-24 20:36 | 49.42734 | -2.86162 | 2997 ft | 183 kts | 89° |
| 2026-04-24 20:36 | 49.42798 | -2.84278 | 3000 ft | 182 kts | 90° |
| 2026-04-24 20:36 | 49.42858 | -2.82338 | 2915 ft | 182 kts | 89° |
| 2026-04-24 20:36 | 49.42915 | -2.80393 | 2731 ft | 180 kts | 91° |
| 2026-04-24 20:37 | 49.42972 | -2.78478 | 2509 ft | 178 kts | 91° |
| 2026-04-24 20:37 | 49.43027 | -2.76603 | 2276 ft | 176 kts | 91° |
| 2026-04-24 20:37 | 49.43081 | -2.74736 | 2043 ft | 173 kts | 90° |
| 2026-04-24 20:37 | 49.43135 | -2.72922 | 1824 ft | 162 kts | 90° |
| 2026-04-24 20:38 | 49.43184 | -2.71224 | 1605 ft | 155 kts | 89° |
| 2026-04-24 20:38 | 49.43230 | -2.69614 | 1403 ft | 148 kts | 89° |
| 2026-04-24 20:38 | 49.43275 | -2.68038 | 1202 ft | 148 kts | 88° |
| 2026-04-24 20:38 | 49.43319 | -2.66469 | 1000 ft | 147 kts | 88° |
| 2026-04-24 20:39 | 49.43364 | -2.64887 | 800 ft | 150 kts | 88° |
| 2026-04-24 20:39 | 49.43408 | -2.63294 | 606 ft | 147 kts | 86° |
| 2026-04-24 20:39 | 49.43454 | -2.61712 | 393 ft | 145 kts | 86° |
| 2026-04-24 20:39 | 49.43494 | -2.60273 | 312 ft | 109 kts | 88° |
| 2026-04-24 20:40 | 49.43510 | -2.59709 | 328 ft | 23 kts | 87° |
| 2026-04-24 20:40 | 49.43516 | -2.59431 | 334 ft | 30 kts | 89° |
| 2026-04-24 20:40 | 49.43516 | -2.59224 | 334 ft | 7 kts | 112° |
| 2026-04-24 20:40 | 49.43450 | -2.59198 | 334 ft | 12 kts | 177° |
| 2026-04-24 20:41 | 49.43376 | -2.59240 | 335 ft | 12 kts | 245° |
| 2026-04-24 20:41 | 49.43368 | -2.59393 | 334 ft | 17 kts | 267° |
| 2026-04-24 20:41 | 49.43363 | -2.59558 | 331 ft | 13 kts | 266° |
| 2026-04-24 20:41 | 49.43359 | -2.59674 | 329 ft | 1 kts | 266° |